createdAt,value
2016-12-03T19:41:57.930Z,100.000
2016-12-03T19:44:48.119Z,99.972
2016-12-03T19:47:42.166Z,99.664
2016-12-03T19:50:35.307Z,98.301
2016-12-03T19:53:29.315Z,97.707
2016-12-03T19:56:23.432Z,96.223
2016-12-03T19:59:17.545Z,95.423
2016-12-03T20:02:11.904Z,94.899
2016-12-03T20:05:05.746Z,94.664
2016-12-03T20:07:59.995Z,95.469
2016-12-03T20:10:54.938Z,94.919
2016-12-03T20:13:47.968Z,94.551
2016-12-03T20:16:42.008Z,94.160
2016-12-03T20:19:36.130Z,94.650
2016-12-03T20:22:30.422Z,93.973
2016-12-03T20:25:24.509Z,93.967
2016-12-03T20:28:18.513Z,94.065
2016-12-03T20:31:12.642Z,93.771
2016-12-03T20:34:06.642Z,93.742
2016-12-03T20:37:00.737Z,93.770
2016-12-03T20:39:54.710Z,94.020
2016-12-03T20:42:49.390Z,93.816
2016-12-03T20:45:44.538Z,93.350
2016-12-03T20:48:37.760Z,93.558
2016-12-03T20:51:31.901Z,93.639
2016-12-03T20:54:25.986Z,92.827
2016-12-03T20:57:20.049Z,94.005
2016-12-03T21:00:15.089Z,93.534
2016-12-03T21:03:08.214Z,93.327
2016-12-03T21:06:02.338Z,92.842
2016-12-03T21:08:57.064Z,93.594
2016-12-03T21:11:50.534Z,93.556
2016-12-03T21:14:46.283Z,93.280
2016-12-03T21:17:40.524Z,93.717
2016-12-03T21:20:33.457Z,93.868
2016-12-03T21:23:27.466Z,93.576
2016-12-03T21:26:21.587Z,94.143
2016-12-03T21:29:15.525Z,93.592
2016-12-03T21:32:09.764Z,93.539
2016-12-03T21:35:05.538Z,93.948
2016-12-03T21:37:59.508Z,94.384
2016-12-03T21:40:52.448Z,94.651
2016-12-03T21:43:48.091Z,93.900
2016-12-03T21:46:42.132Z,95.146
2016-12-03T21:49:36.253Z,95.093
2016-12-03T21:52:28.455Z,95.146
2016-12-03T21:55:22.429Z,94.541
2016-12-03T21:58:16.523Z,94.322
2016-12-03T22:01:12.914Z,94.099
2016-12-03T22:04:05.840Z,94.219
2016-12-03T22:07:01.034Z,94.035
2016-12-03T22:09:53.661Z,94.140
2016-12-03T22:12:47.817Z,94.447
2016-12-03T22:15:41.816Z,94.430
2016-12-03T22:18:36.423Z,93.815
2016-12-03T22:21:31.416Z,93.635
2016-12-03T22:24:26.293Z,94.565
2016-12-03T22:27:18.515Z,94.419
2016-12-03T22:30:12.617Z,94.767
2016-12-03T22:33:08.409Z,94.875
2016-12-03T22:36:00.728Z,94.464
2016-12-03T22:38:54.886Z,94.111
2016-12-03T22:41:49.840Z,94.660
2016-12-03T22:44:42.946Z,94.802
2016-12-03T22:47:38.018Z,94.106
2016-12-03T22:50:31.659Z,93.987
2016-12-03T22:53:25.689Z,93.942
2016-12-03T22:56:20.126Z,94.728
2016-12-03T22:59:13.861Z,93.906
2016-12-03T23:02:07.931Z,94.227
2016-12-03T23:05:02.024Z,94.248
2016-12-03T23:07:56.297Z,93.818
2016-12-03T23:10:52.989Z,94.307
2016-12-03T23:13:47.133Z,94.877
2016-12-03T23:16:40.066Z,94.640
2016-12-03T23:19:33.328Z,94.694
2016-12-03T23:22:27.489Z,94.351
2016-12-03T23:25:20.547Z,94.031
2016-12-03T23:28:14.660Z,94.374
2016-12-03T23:31:09.272Z,94.285
2016-12-03T23:34:02.558Z,94.998
2016-12-03T23:36:56.601Z,95.267
2016-12-03T23:39:52.311Z,94.844
2016-12-03T23:42:46.334Z,94.894
2016-12-03T23:45:40.371Z,95.595
2016-12-03T23:48:34.407Z,95.041
2016-12-03T23:51:28.357Z,94.672
2016-12-03T23:54:20.657Z,95.303
2016-12-03T23:57:14.799Z,95.128
